Time;durP1;ratioP1;P1;durP2;ratioP2;P2;SDS_P1;SDS_P2;PMS_P1;PMS_P2;Temp;Humidity;BMP_temperature;BMP_pressure;BME280_temperature;BME280_humidity;BME280_pressure;Samples;Min_cycle;Max_cycle;Signal;HPM_P1;HPM_P2
2022/01/21 00:01:11;;;;;;;10.55;3.53;;;8.20;59.80;;;;;;5004162;28;20392;-71
2022/01/21 00:03:37;;;;;;;6.55;2.85;;;8.20;59.50;;;;;;5006069;28;20029;-72
2022/01/21 00:06:06;;;;;;;9.43;2.90;;;8.20;59.20;;;;;;5005277;28;20018;-70
2022/01/21 00:08:33;;;;;;;9.95;3.17;;;8.30;59.00;;;;;;5005362;28;20026;-70
2022/01/21 00:10:59;;;;;;;6.63;3.17;;;8.30;58.90;;;;;;5006280;28;20044;-70
2022/01/21 00:13:33;;;;;;;7.05;2.92;;;8.20;58.50;;;;;;5003459;28;20018;-71
2022/01/21 00:16:01;;;;;;;6.78;2.88;;;8.30;58.60;;;;;;5002246;28;20656;-71
2022/01/21 00:18:27;;;;;;;9.40;3.30;;;8.30;58.60;;;;;;5012323;28;20570;-71
2022/01/21 00:31:48;;;;;;;7.55;3.60;;;8.20;59.70;;;;;;5017780;28;20081;-70
2022/01/21 00:34:14;;;;;;;10.25;3.42;;;8.20;60.60;;;;;;5012097;28;20065;-71
2022/01/21 00:36:40;;;;;;;7.80;3.28;;;8.20;60.00;;;;;;5011667;28;20057;-71
2022/01/21 00:39:06;;;;;;;7.90;3.40;;;8.20;60.10;;;;;;5008455;28;20041;-71
2022/01/21 00:41:36;;;;;;;7.68;2.90;;;8.20;60.00;;;;;;5011154;28;20030;-71
2022/01/21 00:44:02;;;;;;;7.60;3.22;;;8.10;59.90;;;;;;5011056;28;20561;-71
2022/01/21 00:46:28;;;;;;;7.90;3.03;;;8.00;59.70;;;;;;5005658;28;20065;-71
2022/01/21 00:48:54;;;;;;;10.13;3.20;;;8.00;59.50;;;;;;5008760;28;20124;-71
2022/01/21 00:51:19;;;;;;;6.63;2.72;;;8.00;59.90;;;;;;5012479;28;20072;-71
2022/01/21 00:53:45;;;;;;;8.10;2.63;;;8.10;59.70;;;;;;5012912;28;20032;-70
2022/01/21 00:56:11;;;;;;;7.93;3.42;;;8.00;59.70;;;;;;5012041;28;20033;-71
2022/01/21 00:58:36;;;;;;;5.40;2.63;;;8.00;59.50;;;;;;5007380;28;20045;-71
2022/01/21 01:01:02;;;;;;;6.57;2.83;;;8.00;59.80;;;;;;5011117;28;20072;-71
2022/01/21 01:03:28;;;;;;;8.57;3.05;;;8.00;59.60;;;;;;5016269;28;20029;-71
2022/01/21 01:05:54;;;;;;;7.30;2.38;;;8.00;59.10;;;;;;5020457;28;20041;-71
2022/01/21 01:08:20;;;;;;;5.07;2.28;;;8.00;58.70;;;;;;5020618;28;20403;-71
2022/01/21 01:21:25;;;;;;;5.32;2.22;;;8.00;58.00;;;;;;5022754;28;20040;-71
2022/01/21 01:29:00;;;;;;;6.90;2.00;;;8.00;57.60;;;;;;5016260;28;20036;-71
2022/01/21 01:31:26;;;;;;;7.90;2.17;;;8.00;57.50;;;;;;5020747;28;20041;-71
2022/01/21 01:33:53;;;;;;;7.40;2.45;;;8.00;57.70;;;;;;5014691;28;20488;-73
2022/01/21 01:36:20;;;;;;;7.55;2.50;;;8.00;57.60;;;;;;5015554;28;20095;-71
2022/01/21 01:39:05;;;;;;;5.30;2.03;;;8.00;58.00;;;;;;5018910;28;20037;-71
2022/01/21 01:41:38;;;;;;;6.45;2.30;;;8.00;58.40;;;;;;5019571;28;20117;-71
2022/01/21 01:49:37;;;;;;;6.50;2.50;;;7.90;58.10;;;;;;5013884;28;20048;-70
2022/01/21 01:52:07;;;;;;;4.95;2.28;;;7.90;58.50;;;;;;5017311;28;20473;-71
2022/01/21 01:54:35;;;;;;;4.65;2.28;;;7.90;58.50;;;;;;5017969;28;20030;-70
2022/01/21 01:57:01;;;;;;;7.30;2.20;;;7.90;58.60;;;;;;5018125;28;20065;-71
2022/01/21 01:59:27;;;;;;;6.38;2.65;;;7.90;58.30;;;;;;5016486;28;20119;-71
2022/01/21 02:02:03;;;;;;;4.90;2.45;;;7.80;58.30;;;;;;5016161;28;20017;-70
2022/01/21 02:04:29;;;;;;;5.22;1.95;;;7.80;58.00;;;;;;5013210;28;20495;-70
2022/01/21 02:06:56;;;;;;;7.72;2.75;;;7.70;58.50;;;;;;5017136;28;20045;-70
2022/01/21 02:09:23;;;;;;;4.85;2.10;;;7.80;58.30;;;;;;5017358;28;20048;-71
2022/01/21 02:11:49;;;;;;;4.22;2.25;;;7.80;57.90;;;;;;5011955;28;20030;-71
2022/01/21 02:14:21;;;;;;;5.93;2.08;;;7.80;58.20;;;;;;5019610;28;20404;-71
2022/01/21 02:22:17;;;;;;;7.90;2.08;;;7.70;57.30;;;;;;5014141;28;20036;-70
2022/01/21 02:24:54;;;;;;;3.45;1.90;;;7.70;57.50;;;;;;5014409;28;20133;-73
2022/01/21 02:27:20;;;;;;;6.25;2.28;;;7.70;57.50;;;;;;5015954;28;20140;-70
2022/01/21 02:29:53;;;;;;;5.07;1.75;;;7.80;57.20;;;;;;5018977;28;20030;-70
2022/01/21 02:32:20;;;;;;;8.55;2.28;;;7.80;57.20;;;;;;5018836;28;20030;-70
2022/01/21 02:34:47;;;;;;;6.07;1.90;;;7.70;57.20;;;;;;5019784;28;20399;-71
2022/01/21 02:37:15;;;;;;;6.53;2.10;;;7.60;57.10;;;;;;5016079;28;20111;-71
2022/01/21 02:39:41;;;;;;;6.03;2.03;;;7.60;56.80;;;;;;5017917;28;20496;-70
2022/01/21 02:42:08;;;;;;;6.75;1.92;;;7.60;56.80;;;;;;5021488;28;20124;-70
2022/01/21 02:44:34;;;;;;;4.57;2.03;;;7.60;56.60;;;;;;5021732;28;20041;-71
2022/01/21 02:47:02;;;;;;;5.45;2.00;;;7.60;56.70;;;;;;5024211;28;20030;-71
2022/01/21 02:49:28;;;;;;;8.02;2.10;;;7.60;56.60;;;;;;5014327;28;20022;-71
2022/01/21 02:51:56;;;;;;;5.57;2.00;;;7.60;57.00;;;;;;5018200;28;20041;-71
2022/01/21 02:54:22;;;;;;;7.13;1.90;;;7.60;56.60;;;;;;5018647;28;20062;-70
2022/01/21 02:56:49;;;;;;;5.25;1.80;;;7.60;56.80;;;;;;5018124;28;20034;-73
2022/01/21 02:59:14;;;;;;;5.18;2.25;;;7.50;56.80;;;;;;5019628;28;20061;-71
2022/01/21 03:01:42;;;;;;;4.05;1.67;;;7.60;56.60;;;;;;5013794;28;20046;-73
2022/01/21 03:04:12;;;;;;;5.03;2.10;;;7.50;56.60;;;;;;5017508;28;20041;-70
2022/01/21 03:06:38;;;;;;;3.90;1.60;;;7.50;56.80;;;;;;5017521;28;20088;-70
2022/01/21 03:09:06;;;;;;;4.85;1.80;;;7.50;56.80;;;;;;5017611;28;20513;-70
2022/01/21 03:11:32;;;;;;;5.85;2.17;;;7.40;56.70;;;;;;5017569;28;20404;-70
2022/01/21 03:13:57;;;;;;;5.35;1.88;;;7.50;56.40;;;;;;5016620;28;20041;-73
2022/01/21 03:16:24;;;;;;;4.15;2.00;;;7.50;56.60;;;;;;5015362;28;20030;-70
2022/01/21 03:18:50;;;;;;;4.90;1.83;;;7.40;56.60;;;;;;5014290;28;20385;-71
2022/01/21 03:21:17;;;;;;;7.50;1.85;;;7.40;57.00;;;;;;5016322;28;20519;-70
2022/01/21 03:23:46;;;;;;;5.63;1.80;;;7.40;57.60;;;;;;5013040;28;20092;-70
2022/01/21 03:26:16;;;;;;;4.43;1.85;;;7.40;56.90;;;;;;5014753;28;20103;-71
2022/01/21 03:28:42;;;;;;;5.30;1.92;;;7.40;56.50;;;;;;5020784;28;20025;-70
2022/01/21 03:31:08;;;;;;;5.78;1.77;;;7.40;56.60;;;;;;5011293;28;20040;-70
2022/01/21 03:33:34;;;;;;;6.07;1.90;;;7.30;56.80;;;;;;5016120;28;20026;-70
2022/01/21 03:36:00;;;;;;;6.05;1.98;;;7.30;56.80;;;;;;5019234;28;20493;-71
2022/01/21 03:38:27;;;;;;;5.47;1.90;;;7.30;56.90;;;;;;5021478;28;20037;-71
2022/01/21 03:40:54;;;;;;;4.25;1.80;;;7.30;56.90;;;;;;5020756;28;20083;-71
2022/01/21 03:43:22;;;;;;;6.25;1.80;;;7.30;56.80;;;;;;5015995;28;20032;-70
2022/01/21 03:45:47;;;;;;;6.82;2.20;;;7.30;56.80;;;;;;5014363;28;20527;-70
2022/01/21 03:48:14;;;;;;;5.28;1.88;;;7.30;56.40;;;;;;5022013;28;20033;-71
2022/01/21 03:50:39;;;;;;;4.15;1.70;;;7.20;56.60;;;;;;5019475;28;20516;-71
2022/01/21 03:53:06;;;;;;;6.32;1.92;;;7.20;56.70;;;;;;5025875;28;20036;-71
2022/01/21 03:55:33;;;;;;;5.00;1.90;;;7.20;56.70;;;;;;5021722;28;20025;-71
2022/01/21 03:58:00;;;;;;;5.95;1.80;;;7.20;57.00;;;;;;5018177;28;20061;-71
2022/01/21 04:00:32;;;;;;;7.75;2.25;;;7.10;57.00;;;;;;5020995;28;20120;-71
2022/01/21 04:02:58;;;;;;;4.90;2.00;;;7.10;56.90;;;;;;5020158;28;20068;-71
2022/01/21 04:05:26;;;;;;;6.72;2.78;;;7.10;56.90;;;;;;5018845;28;20033;-71
2022/01/21 04:07:51;;;;;;;4.72;2.10;;;7.10;57.00;;;;;;5016070;28;20022;-71
2022/01/21 04:10:17;;;;;;;6.97;2.10;;;7.10;57.00;;;;;;5017193;28;20060;-71
2022/01/21 04:12:43;;;;;;;3.95;1.80;;;7.10;56.90;;;;;;5018055;28;20030;-71
2022/01/21 04:15:10;;;;;;;7.72;2.10;;;7.00;56.90;;;;;;5016620;28;20044;-71
2022/01/21 04:17:35;;;;;;;6.65;2.05;;;7.10;57.10;;;;;;5015772;28;20037;-70
2022/01/21 04:20:03;;;;;;;5.15;2.10;;;7.00;56.80;;;;;;5018261;28;20030;-71
2022/01/21 04:22:28;;;;;;;5.30;1.90;;;7.10;56.60;;;;;;5014941;28;20116;-71
2022/01/21 04:24:55;;;;;;;5.28;1.95;;;7.10;56.70;;;;;;5016860;28;20168;-71
2022/01/21 04:27:21;;;;;;;6.35;2.10;;;7.10;56.50;;;;;;5016988;28;20036;-71
2022/01/21 04:29:46;;;;;;;5.75;2.30;;;7.10;56.40;;;;;;5013430;28;20029;-71
2022/01/21 04:32:12;;;;;;;7.95;1.88;;;7.00;56.30;;;;;;5019396;28;20048;-71
2022/01/21 04:34:38;;;;;;;5.75;1.90;;;7.00;56.70;;;;;;5013397;28;20488;-71
2022/01/21 04:37:08;;;;;;;3.78;1.85;;;7.00;56.70;;;;;;5016557;28;20484;-71
2022/01/21 04:39:39;;;;;;;5.00;1.92;;;7.00;56.60;;;;;;5016053;28;20040;-71
2022/01/21 04:47:34;;;;;;;6.95;1.90;;;7.00;56.90;;;;;;5018755;28;20119;-71
2022/01/21 04:50:00;;;;;;;6.15;2.03;;;7.00;56.90;;;;;;5022876;28;20041;-71
2022/01/21 04:52:26;;;;;;;3.95;2.10;;;6.90;56.90;;;;;;5016932;28;20140;-70
2022/01/21 04:54:53;;;;;;;4.07;1.98;;;6.90;57.00;;;;;;5016201;28;20022;-71
2022/01/21 04:57:19;;;;;;;5.05;2.25;;;6.90;56.70;;;;;;5019755;28;20048;-71
2022/01/21 04:59:45;;;;;;;6.38;2.00;;;6.90;56.60;;;;;;5017228;28;20433;-71
2022/01/21 05:02:11;;;;;;;7.20;2.20;;;6.90;56.50;;;;;;5023225;28;20510;-71
2022/01/21 05:04:37;;;;;;;6.07;2.00;;;6.90;57.00;;;;;;5017734;28;20033;-71
2022/01/21 05:07:06;;;;;;;4.78;2.03;;;6.90;56.90;;;;;;5015132;28;20408;-71
2022/01/21 05:09:34;;;;;;;3.70;1.73;;;6.90;56.80;;;;;;5018524;28;20045;-71
2022/01/21 05:12:02;;;;;;;4.60;1.63;;;6.90;56.90;;;;;;5018327;28;20034;-71
2022/01/21 05:14:46;;;;;;;5.28;1.83;;;6.90;56.60;;;;;;5021232;28;20488;-71
2022/01/21 05:17:13;;;;;;;10.98;2.10;;;6.80;56.80;;;;;;5016012;28;20022;-71
2022/01/21 05:19:39;;;;;;;7.13;2.33;;;6.80;57.10;;;;;;5011711;28;20120;-71
2022/01/21 05:22:04;;;;;;;4.03;1.90;;;6.70;57.10;;;;;;5013285;28;20421;-71
2022/01/21 05:24:30;;;;;;;4.03;1.63;;;6.70;57.00;;;;;;5013618;28;20044;-71
2022/01/21 05:26:58;;;;;;;5.18;2.25;;;6.70;56.50;;;;;;5011022;28;20445;-71
2022/01/21 05:29:29;;;;;;;5.45;1.80;;;6.70;56.80;;;;;;5010871;28;20033;-71
2022/01/21 05:31:56;;;;;;;6.68;2.53;;;6.70;56.80;;;;;;5012455;28;20461;-71
2022/01/21 05:34:22;;;;;;;2.88;1.38;;;6.70;56.50;;;;;;5013115;28;20085;-71
2022/01/21 05:36:48;;;;;;;5.97;1.75;;;6.70;56.20;;;;;;5012680;28;20025;-71
2022/01/21 05:39:16;;;;;;;5.45;1.75;;;6.70;55.90;;;;;;5012652;28;20485;-71
2022/01/21 05:41:48;;;;;;;6.43;2.10;;;6.70;55.90;;;;;;5005028;28;20087;-71
2022/01/21 05:47:03;;;;;;;5.55;1.67;;;6.70;55.50;;;;;;4971514;28;20118;-71
2022/01/21 05:49:31;;;;;;;6.25;1.70;;;6.70;55.60;;;;;;4974373;28;20046;-73
2022/01/21 05:52:04;;;;;;;4.75;1.80;;;6.70;55.60;;;;;;4974768;28;20441;-71
2022/01/21 05:54:31;;;;;;;6.57;1.95;;;6.70;55.30;;;;;;4967522;28;20037;-71
2022/01/21 05:56:57;;;;;;;3.22;1.55;;;6.70;55.40;;;;;;4972730;28;20069;-71
2022/01/21 05:59:23;;;;;;;2.83;1.50;;;6.80;55.20;;;;;;4978484;28;20089;-70
2022/01/21 06:01:50;;;;;;;3.67;1.40;;;6.80;55.10;;;;;;4977021;28;20022;-70
2022/01/21 06:04:16;;;;;;;4.57;1.60;;;6.70;55.10;;;;;;4974869;28;20047;-70
2022/01/21 06:06:42;;;;;;;3.80;1.75;;;6.70;55.20;;;;;;4977363;28;20591;-73
2022/01/21 06:09:08;;;;;;;5.43;1.75;;;6.70;55.50;;;;;;4979446;28;20154;-73
2022/01/21 06:11:34;;;;;;;4.78;1.55;;;6.60;55.30;;;;;;4979118;28;20202;-73
2022/01/21 06:14:01;;;;;;;6.05;1.50;;;6.60;55.20;;;;;;4977420;28;20471;-73
2022/01/21 06:16:27;;;;;;;4.30;1.55;;;6.60;55.50;;;;;;4973464;28;20038;-73
2022/01/21 06:18:53;;;;;;;7.18;1.70;;;6.60;55.60;;;;;;4971611;28;20038;-71
2022/01/21 06:21:19;;;;;;;5.95;1.60;;;6.60;55.30;;;;;;4979035;28;20039;-71
2022/01/21 06:23:45;;;;;;;5.68;2.10;;;6.50;55.60;;;;;;4990226;28;20489;-70
2022/01/21 06:26:11;;;;;;;7.47;2.10;;;6.60;55.60;;;;;;5019864;28;20460;-73
2022/01/21 06:28:37;;;;;;;5.10;1.67;;;6.60;55.80;;;;;;5011618;28;20117;-73
2022/01/21 06:31:03;;;;;;;7.57;2.22;;;6.60;55.80;;;;;;5012654;28;20455;-72
2022/01/21 06:33:29;;;;;;;4.05;2.00;;;6.50;55.70;;;;;;5016208;28;20104;-73
2022/01/21 06:35:55;;;;;;;4.40;1.60;;;6.50;56.00;;;;;;5016466;28;20445;-73
2022/01/21 06:38:21;;;;;;;5.80;1.92;;;6.50;55.60;;;;;;5019895;28;20042;-70
2022/01/21 06:40:49;;;;;;;3.03;1.60;;;6.50;55.80;;;;;;5015707;28;20022;-73
2022/01/21 06:43:16;;;;;;;3.20;1.42;;;6.50;55.90;;;;;;5013459;28;20432;-70
2022/01/21 06:45:42;;;;;;;6.22;1.98;;;6.50;56.00;;;;;;5016201;28;20109;-73
2022/01/21 06:48:08;;;;;;;6.10;2.00;;;6.50;55.70;;;;;;5016146;28;20030;-70
2022/01/21 06:50:37;;;;;;;5.50;1.85;;;6.40;55.60;;;;;;5018254;28;20562;-73
2022/01/21 06:53:03;;;;;;;6.45;1.70;;;6.40;55.70;;;;;;5018665;28;20026;-71
2022/01/21 06:55:29;;;;;;;5.72;2.25;;;6.40;56.00;;;;;;5010076;28;20040;-71
2022/01/21 06:57:55;;;;;;;10.40;3.42;;;6.30;56.00;;;;;;5007900;28;20531;-70
2022/01/21 07:00:21;;;;;;;8.10;2.67;;;6.30;55.90;;;;;;5016206;28;20511;-73
2022/01/21 07:02:48;;;;;;;11.63;3.00;;;6.30;55.80;;;;;;5006878;28;20487;-70
2022/01/21 07:05:15;;;;;;;6.30;2.13;;;6.40;55.60;;;;;;5011682;28;20014;-72
2022/01/21 07:07:40;;;;;;;5.13;1.95;;;6.30;55.70;;;;;;5010111;28;20058;-72
2022/01/21 07:10:08;;;;;;;6.15;2.35;;;6.40;55.70;;;;;;5008543;28;20478;-72
2022/01/21 07:12:34;;;;;;;5.80;2.15;;;6.40;55.50;;;;;;5007888;28;20424;-72
2022/01/21 07:15:00;;;;;;;3.78;1.67;;;6.40;55.20;;;;;;5006923;28;20033;-73
2022/01/21 07:17:26;;;;;;;5.30;2.33;;;6.40;54.90;;;;;;5017068;28;20332;-72
2022/01/21 07:19:52;;;;;;;5.57;1.70;;;6.40;55.10;;;;;;5009453;28;20548;-72
2022/01/21 07:22:18;;;;;;;6.20;1.90;;;6.50;54.90;;;;;;5007905;28;20061;-72
2022/01/21 07:24:43;;;;;;;4.10;1.83;;;6.50;55.10;;;;;;5012136;28;20515;-72
2022/01/21 07:27:09;;;;;;;6.55;2.30;;;6.50;54.90;;;;;;5012298;28;20026;-72
2022/01/21 07:29:36;;;;;;;7.50;2.10;;;6.50;54.90;;;;;;5012759;28;20042;-72
2022/01/21 07:32:02;;;;;;;6.50;2.30;;;6.40;55.00;;;;;;5014363;28;20097;-72
2022/01/21 07:34:27;;;;;;;6.47;1.90;;;6.40;55.10;;;;;;5012780;28;20037;-72
2022/01/21 07:36:54;;;;;;;6.07;2.00;;;6.30;54.90;;;;;;5011995;28;20020;-73
2022/01/21 07:39:21;;;;;;;5.20;1.80;;;6.40;55.20;;;;;;5012340;28;20034;-72
2022/01/21 07:41:47;;;;;;;5.18;2.17;;;6.40;55.10;;;;;;5019675;28;20112;-72
2022/01/21 07:44:13;;;;;;;5.20;2.30;;;6.40;54.90;;;;;;5020022;28;20052;-72
2022/01/21 07:46:41;;;;;;;7.72;2.15;;;6.50;54.90;;;;;;5014280;28;20018;-72
2022/01/21 07:49:07;;;;;;;5.72;2.13;;;6.50;54.70;;;;;;5016065;28;20022;-73
2022/01/21 07:51:33;;;;;;;5.88;1.90;;;6.40;54.50;;;;;;5018581;28;20092;-72
2022/01/21 07:53:59;;;;;;;12.38;2.00;;;6.50;54.30;;;;;;5019151;28;20366;-72
2022/01/21 07:56:24;;;;;;;5.13;1.95;;;6.50;53.80;;;;;;5020581;28;20025;-72
2022/01/21 07:58:51;;;;;;;5.53;1.80;;;6.60;53.50;;;;;;5015745;28;20079;-72
2022/01/21 08:01:17;;;;;;;6.57;1.83;;;6.60;53.20;;;;;;5013783;28;20057;-72
2022/01/21 08:03:43;;;;;;;3.80;1.63;;;6.70;53.40;;;;;;5018176;28;20030;-73
2022/01/21 08:06:08;;;;;;;6.32;1.65;;;6.70;53.40;;;;;;5017818;28;20037;-72
2022/01/21 08:08:35;;;;;;;5.88;1.80;;;6.80;53.10;;;;;;5020965;28;20034;-73
2022/01/21 08:11:00;;;;;;;7.55;1.92;;;6.90;53.20;;;;;;5018739;28;20029;-72
2022/01/21 08:13:27;;;;;;;5.78;2.00;;;6.90;53.40;;;;;;5014490;28;20028;-72
2022/01/21 08:15:54;;;;;;;4.65;1.90;;;6.90;53.20;;;;;;5018047;28;20034;-74
2022/01/21 08:18:19;;;;;;;6.07;1.77;;;7.00;53.60;;;;;;5011934;28;20034;-73
2022/01/21 08:20:45;;;;;;;5.00;2.40;;;7.10;52.90;;;;;;5020540;28;20423;-73
2022/01/21 08:23:12;;;;;;;8.05;1.80;;;7.10;52.80;;;;;;5021656;28;20026;-73
2022/01/21 08:25:39;;;;;;;5.60;1.75;;;7.20;53.00;;;;;;5019511;28;20095;-74
2022/01/21 08:28:05;;;;;;;5.35;1.90;;;7.30;52.50;;;;;;5017498;28;20396;-73
2022/01/21 08:30:31;;;;;;;5.40;1.60;;;7.30;52.50;;;;;;5016111;28;20018;-73
2022/01/21 08:32:57;;;;;;;5.20;1.80;;;7.40;52.20;;;;;;5019907;28;20061;-73
2022/01/21 08:35:22;;;;;;;6.25;1.80;;;7.50;51.90;;;;;;5019367;28;20054;-73
2022/01/21 08:37:52;;;;;;;4.18;1.70;;;7.90;51.60;;;;;;5021321;28;20057;-73
2022/01/21 08:40:19;;;;;;;6.55;1.80;;;9.70;48.70;;;;;;5019017;28;20040;-72
2022/01/21 08:42:44;;;;;;;7.07;1.77;;;12.60;44.00;;;;;;5015306;28;20504;-73
2022/01/21 08:45:11;;;;;;;7.13;2.10;;;14.60;39.30;;;;;;5017771;28;20033;-72
2022/01/21 08:47:40;;;;;;;6.95;2.25;;;16.10;37.90;;;;;;5020021;28;20516;-71
2022/01/21 08:50:08;;;;;;;6.93;1.70;;;17.00;36.10;;;;;;5021159;28;20451;-73
2022/01/21 08:52:37;;;;;;;6.05;1.88;;;17.40;35.10;;;;;;5020033;28;20512;-72
2022/01/21 08:55:04;;;;;;;6.13;2.50;;;18.10;34.60;;;;;;5015821;28;20052;-70
2022/01/21 08:57:32;;;;;;;8.15;1.63;;;18.40;33.90;;;;;;5013712;28;20124;-70
2022/01/21 08:59:58;;;;;;;4.90;1.52;;;18.40;33.50;;;;;;5011842;28;20026;-71
2022/01/21 09:02:24;;;;;;;7.38;1.75;;;18.40;33.50;;;;;;5020439;28;20033;-70
2022/01/21 09:04:50;;;;;;;10.20;1.77;;;17.40;34.30;;;;;;5022795;28;20401;-71
2022/01/21 09:07:15;;;;;;;10.20;1.42;;;16.00;36.00;;;;;;5018029;28;20159;-71
2022/01/21 09:09:41;;;;;;;9.77;1.67;;;14.90;37.80;;;;;;5016406;28;20026;-71
2022/01/21 09:12:07;;;;;;;8.43;1.98;;;14.10;39.10;;;;;;5019296;28;20423;-69
2022/01/21 09:14:33;;;;;;;7.88;1.85;;;13.40;39.90;;;;;;5019782;28;20030;-70
2022/01/21 09:16:59;;;;;;;8.35;1.73;;;13.10;41.00;;;;;;5019666;28;20058;-70
2022/01/21 09:19:26;;;;;;;9.45;1.73;;;12.60;41.20;;;;;;5012458;28;20108;-70
2022/01/21 09:21:52;;;;;;;5.38;1.40;;;12.40;42.00;;;;;;5014776;28;20792;-70
2022/01/21 09:24:19;;;;;;;9.68;2.28;;;12.30;42.30;;;;;;5017742;28;20040;-72
2022/01/21 09:26:45;;;;;;;11.68;3.25;;;12.10;42.30;;;;;;5018145;28;20216;-72
2022/01/21 09:29:11;;;;;;;7.03;1.30;;;12.20;42.60;;;;;;5013341;28;20027;-70
2022/01/21 09:31:38;;;;;;;10.00;2.67;;;12.20;42.40;;;;;;5012690;28;20060;-70
2022/01/21 09:34:05;;;;;;;9.65;1.70;;;12.10;42.80;;;;;;5017029;28;20037;-70
2022/01/21 09:36:32;;;;;;;6.47;1.58;;;12.20;43.10;;;;;;5017092;28;20034;-70
2022/01/21 09:39:00;;;;;;;10.60;2.00;;;12.10;43.10;;;;;;5014103;28;20099;-70
2022/01/21 09:41:26;;;;;;;9.85;2.17;;;12.10;43.00;;;;;;5014263;28;20104;-70
2022/01/21 09:43:53;;;;;;;9.88;2.60;;;11.90;42.60;;;;;;5014387;28;20053;-74
2022/01/21 09:46:26;;;;;;;10.23;2.08;;;12.00;43.20;;;;;;5013574;28;20033;-70
2022/01/21 09:48:55;;;;;;;11.50;1.67;;;11.90;42.60;;;;;;5016450;28;20076;-71
2022/01/21 09:51:21;;;;;;;7.47;1.70;;;12.00;42.60;;;;;;5015932;28;20052;-71
2022/01/21 09:53:47;;;;;;;13.75;2.10;;;12.20;42.60;;;;;;5016042;28;20026;-70
2022/01/21 09:56:14;;;;;;;7.38;2.08;;;12.30;42.10;;;;;;5016955;28;20048;-70
2022/01/21 09:58:44;;;;;;;7.90;1.70;;;12.60;42.00;;;;;;5011279;28;20042;-71
2022/01/21 10:01:10;;;;;;;10.35;2.13;;;12.50;42.20;;;;;;5014704;28;20029;-72
2022/01/21 10:03:40;;;;;;;9.93;1.95;;;12.40;41.50;;;;;;5015602;28;20093;-72
2022/01/21 10:06:06;;;;;;;10.50;1.83;;;12.50;41.20;;;;;;5005457;28;20440;-73
2022/01/21 10:08:38;;;;;;;14.02;2.00;;;12.40;42.20;;;;;;5013867;28;20033;-72
2022/01/21 10:11:04;;;;;;;8.52;1.70;;;12.30;41.70;;;;;;5013854;28;20037;-72
2022/01/21 10:13:31;;;;;;;6.63;2.00;;;12.30;42.00;;;;;;5010726;28;20038;-70
2022/01/21 10:15:57;;;;;;;7.82;1.70;;;12.40;41.90;;;;;;5013182;28;20026;-70
2022/01/21 10:18:23;;;;;;;6.53;1.60;;;12.70;42.40;;;;;;5011747;28;20053;-72
2022/01/21 10:21:10;;;;;;;7.63;2.35;;;12.70;42.30;;;;;;5014244;28;20041;-67
2022/01/21 10:23:38;;;;;;;5.93;1.73;;;12.90;42.10;;;;;;5014307;28;20057;-72
2022/01/21 10:26:15;;;;;;;6.20;2.00;;;13.10;41.50;;;;;;5020088;28;20026;-73
2022/01/21 10:28:44;;;;;;;7.63;1.83;;;12.60;42.30;;;;;;5018559;28;20053;-76
2022/01/21 10:31:18;;;;;;;9.65;2.35;;;12.70;42.90;;;;;;5013302;28;20064;-76
2022/01/21 10:33:45;;;;;;;;;;;12.70;43.20;;;;;;5013037;28;20053;-73
2022/01/21 10:36:34;;;;;;;12.02;2.50;;;12.60;43.30;;;;;;5015999;28;19916;-73
2022/01/21 10:39:09;;;;;;;13.55;3.30;;;12.50;43.40;;;;;;5010819;28;20394;-72
2022/01/21 10:41:38;;;;;;;14.27;3.67;;;12.40;43.40;;;;;;5013514;28;20041;-73
2022/01/21 10:44:18;;;;;;;8.80;2.47;;;12.40;43.90;;;;;;5014635;28;20053;-73
2022/01/21 10:47:20;;;;;;;8.13;2.72;;;12.20;44.70;;;;;;5009689;28;20507;-72
2022/01/21 10:49:58;;;;;;;13.60;3.05;;;12.10;44.40;;;;;;5009786;28;20042;-73
2022/01/21 10:52:51;;;;;;;10.00;2.33;;;12.10;44.80;;;;;;5015408;28;20037;-73
2022/01/21 10:55:41;;;;;;;10.50;2.30;;;12.20;44.30;;;;;;5008616;28;20575;-73
2022/01/21 10:58:07;;;;;;;8.27;2.60;;;12.20;43.00;;;;;;5011787;28;20041;-72
2022/01/21 11:00:34;;;;;;;5.55;2.22;;;12.10;42.90;;;;;;5016851;28;20499;-72
2022/01/21 11:03:15;;;;;;;14.05;3.65;;;12.20;43.30;;;;;;5015943;28;20068;-72
2022/01/21 11:05:46;;;;;;;13.40;2.80;;;12.30;44.30;;;;;;5014919;28;20025;-72
2022/01/21 11:08:13;;;;;;;12.10;2.58;;;12.40;43.00;;;;;;5014015;28;20855;-72
2022/01/21 11:10:47;;;;;;;16.50;2.72;;;12.40;42.50;;;;;;5015681;28;20026;-73
2022/01/21 11:13:13;;;;;;;12.65;2.63;;;12.20;42.50;;;;;;5012208;28;20109;-73
2022/01/21 11:15:45;;;;;;;22.27;4.65;;;12.20;42.50;;;;;;5019477;28;20121;-72
2022/01/21 11:18:15;;;;;;;13.40;3.55;;;12.30;43.10;;;;;;5017896;28;20041;-73
2022/01/21 11:20:43;;;;;;;18.35;3.25;;;12.20;43.40;;;;;;5016063;28;20088;-73
2022/01/21 11:23:10;;;;;;;14.82;2.90;;;12.20;43.40;;;;;;5019605;28;20029;-72
2022/01/21 11:25:50;;;;;;;12.77;2.97;;;12.40;43.70;;;;;;5015492;28;20030;-71
2022/01/21 11:28:21;;;;;;;10.77;3.38;;;12.60;43.10;;;;;;5011403;28;20508;-72
2022/01/21 11:30:48;;;;;;;15.82;3.40;;;12.90;42.80;;;;;;5018131;28;20034;-73
2022/01/21 11:33:14;;;;;;;12.90;3.55;;;13.10;41.90;;;;;;5017386;28;20034;-73
2022/01/21 11:35:40;;;;;;;9.52;4.00;;;13.20;41.60;;;;;;5015519;28;20027;-72
2022/01/21 11:38:09;;;;;;;10.23;3.50;;;13.20;41.90;;;;;;5019476;28;20568;-73
2022/01/21 11:40:35;;;;;;;12.88;4.78;;;13.30;41.20;;;;;;5021955;28;20037;-74
2022/01/21 11:43:06;;;;;;;9.55;4.00;;;13.60;41.40;;;;;;5017402;28;20034;-72
2022/01/21 11:46:04;;;;;;;12.57;3.28;;;13.60;41.20;;;;;;5019871;28;20049;-72
2022/01/21 11:50:49;;;;;;;10.20;3.63;;;13.70;42.30;;;;;;5010409;28;20058;-72
2022/01/21 11:53:44;;;;;;;10.85;3.88;;;13.80;42.20;;;;;;5020526;28;20022;-72
2022/01/21 11:56:34;;;;;;;6.75;2.85;;;14.00;42.40;;;;;;5021794;28;20026;-72
2022/01/21 11:59:11;;;;;;;10.15;4.53;;;14.00;41.50;;;;;;5020449;28;20049;-72
2022/01/21 12:01:48;;;;;;;9.50;3.42;;;14.10;41.50;;;;;;5017069;28;20045;-72
2022/01/21 12:04:34;;;;;;;10.90;3.10;;;14.20;41.60;;;;;;5010441;28;20034;-72
2022/01/21 12:07:01;;;;;;;9.77;2.03;;;14.30;41.20;;;;;;5013659;28;20022;-73
2022/01/21 12:09:56;;;;;;;5.80;2.20;;;14.40;41.00;;;;;;5017386;28;20124;-72
2022/01/21 12:12:24;;;;;;;10.18;2.58;;;14.60;40.50;;;;;;5007445;28;20033;-72
2022/01/21 12:15:00;;;;;;;13.07;2.47;;;14.80;40.30;;;;;;5018406;28;20068;-72
2022/01/21 12:17:46;;;;;;;9.95;2.45;;;15.10;39.80;;;;;;5020152;28;20777;-72
2022/01/21 12:20:12;;;;;;;5.43;2.20;;;15.30;38.80;;;;;;5021244;28;20539;-73
2022/01/21 12:22:38;;;;;;;9.88;2.50;;;15.80;38.70;;;;;;5016414;28;20041;-72
2022/01/21 12:25:12;;;;;;;8.43;2.45;;;18.30;37.90;;;;;;5013067;28;20029;-71
2022/01/21 12:27:40;;;;;;;11.20;2.70;;;20.30;34.70;;;;;;5018499;28;20090;-73
2022/01/21 12:30:19;;;;;;;9.88;2.65;;;21.90;32.60;;;;;;5019607;28;20497;-71
2022/01/21 12:33:11;;;;;;;9.00;2.28;;;23.40;31.90;;;;;;5013897;28;20062;-75
2022/01/21 12:35:37;;;;;;;13.88;4.60;;;24.00;30.50;;;;;;5018045;28;20547;-71
2022/01/21 12:40:53;;;;;;;16.63;7.22;;;25.10;30.00;;;;;;5023846;28;20021;-72
2022/01/21 12:43:37;;;;;;;7.75;2.13;;;24.30;29.60;;;;;;5016809;28;20033;-73
2022/01/21 12:46:05;;;;;;;8.40;2.20;;;24.20;29.90;;;;;;5016896;28;20044;-71
2022/01/21 12:48:34;;;;;;;10.00;2.42;;;23.10;29.80;;;;;;5019759;28;20051;-72
2022/01/21 12:51:14;;;;;;;9.38;2.55;;;21.50;30.80;;;;;;5017874;28;20054;-73
2022/01/21 12:55:55;;;;;;;11.73;2.40;;;20.40;32.50;;;;;;5019522;28;20030;-72
2022/01/21 12:56:29;;;;;;;21.33;3.13;;;19.50;32.90;;;;;;5021602;28;20056;-73
2022/01/21 12:58:55;;;;;;;8.43;2.40;;;17.90;34.50;;;;;;5021535;28;20343;-72
2022/01/21 13:01:20;;;;;;;6.93;1.98;;;17.90;35.40;;;;;;5015574;28;20021;-72
2022/01/21 13:03:52;;;;;;;8.30;2.40;;;20.60;34.70;;;;;;5016881;28;20034;-72
2022/01/21 13:06:27;;;;;;;8.68;2.00;;;22.60;32.10;;;;;;5014762;28;20025;-72
2022/01/21 13:09:21;;;;;;;6.40;2.50;;;24.30;31.00;;;;;;5007766;28;20110;-72
2022/01/21 13:12:06;;;;;;;7.18;2.30;;;23.00;30.90;;;;;;5011781;28;20037;-72
2022/01/21 13:17:02;;;;;;;9.88;1.90;;;26.60;29.80;;;;;;5013278;28;20399;-72
2022/01/21 13:19:30;;;;;;;8.20;2.17;;;26.80;29.40;;;;;;5013378;28;20589;-72
2022/01/21 13:21:56;;;;;;;8.80;2.38;;;27.10;29.30;;;;;;5013300;28;20053;-72
2022/01/21 13:24:32;;;;;;;12.20;2.30;;;26.80;29.20;;;;;;5014180;28;20057;-72
2022/01/21 13:26:58;;;;;;;8.70;1.95;;;26.60;29.00;;;;;;5011488;28;20034;-70
2022/01/21 13:29:33;;;;;;;8.75;1.80;;;27.00;29.10;;;;;;5010371;28;20014;-70
2022/01/21 13:32:00;;;;;;;9.25;2.00;;;27.60;28.50;;;;;;5013035;28;20114;-70
2022/01/21 13:34:27;;;;;;;7.10;1.90;;;27.80;28.50;;;;;;5013476;28;20032;-69
2022/01/21 13:37:01;;;;;;;5.90;1.52;;;28.00;28.70;;;;;;5013421;28;20114;-71
2022/01/21 13:39:42;;;;;;;8.52;2.15;;;28.30;28.40;;;;;;5013768;28;20128;-70
2022/01/21 13:42:14;;;;;;;8.05;2.08;;;28.50;28.10;;;;;;5013589;28;20036;-70
2022/01/21 13:44:44;;;;;;;9.23;1.87;;;28.40;28.30;;;;;;5019351;28;20084;-70
2022/01/21 13:47:31;;;;;;;13.18;2.75;;;27.50;28.00;;;;;;5022111;28;20691;-70
2022/01/21 13:50:04;;;;;;;6.38;1.95;;;28.60;28.10;;;;;;5010426;28;20098;-70
2022/01/21 13:52:38;;;;;;;9.88;2.17;;;28.50;28.10;;;;;;5013227;28;20036;-70